Waterford, Connecticut
Current Conditions -  °F | °C
As of 12:27 AM on Thursday 27 Nov 2014 (Local Time) from KGON Reporting Station
Light Snow Light Snow  
Wind Chill: 23°   Ceiling: 1400
Heat Index: 34°   Visibility: 2.5mi
Dew Point: 34°   Wind: 17mph
Humidity: 100%   Direction: 340°NNW
Pressure: 29.7"   Gusts: 29mph
Location:  41.33°N, 72.12°W
Report Text: KGON 270527Z AUTO 34015G25KT 2 1/2SM -SN BR FEW010 BKN014 OVC036 01/01 A2970 RMK AO2 RAE25SNB25 P0000 T00110011
Loading
Personal Weather Stations






























Interactive Weather Map New forecast layout! Learn more

10-Day Weather Forecast

Advertisements
Track Severe Weather on mobile